createdAt,value
2018-09-30T00:00:33.214Z,102279.61
2018-09-30T00:01:33.821Z,102278.78
2018-09-30T00:02:34.159Z,102277.79
2018-09-30T00:03:34.849Z,102277.10
2018-09-30T00:04:35.357Z,102276.27
2018-09-30T00:05:35.762Z,102276.20
2018-09-30T00:06:36.255Z,102275.88
2018-09-30T00:07:36.612Z,102275.03
2018-09-30T00:08:37.126Z,102274.94
2018-09-30T00:09:37.461Z,102274.94
2018-09-30T00:10:37.817Z,102274.53
2018-09-30T00:11:38.179Z,102274.42
2018-09-30T00:12:38.566Z,102274.18
2018-09-30T00:13:38.947Z,102274.03
2018-09-30T00:14:39.313Z,102274.25
2018-09-30T00:15:39.798Z,102274.53
2018-09-30T00:16:40.198Z,102274.36
2018-09-30T00:17:40.879Z,102273.77
2018-09-30T00:18:41.174Z,102274.10
2018-09-30T00:19:41.729Z,102273.58
2018-09-30T00:20:40.981Z,102273.44
2018-09-30T00:21:42.361Z,102273.08
2018-09-30T00:22:42.794Z,102273.41
2018-09-30T00:23:42.500Z,102273.02
2018-09-30T00:24:42.912Z,102272.42
2018-09-30T00:25:43.786Z,102272.59
2018-09-30T00:26:45.148Z,102272.09
2018-09-30T00:27:45.519Z,102272.09
2018-09-30T00:28:45.870Z,102271.34
2018-09-30T00:29:46.190Z,102271.27
2018-09-30T00:30:46.596Z,102270.98
2018-09-30T00:31:46.886Z,102270.58
2018-09-30T00:32:47.219Z,102269.73
2018-09-30T00:33:47.701Z,102269.92
2018-09-30T00:34:48.037Z,102269.42
2018-09-30T00:35:48.360Z,102269.06
2018-09-30T00:36:48.770Z,102268.66
2018-09-30T00:37:49.109Z,102268.08
2018-09-30T00:38:49.442Z,102267.81
2018-09-30T00:39:49.763Z,102267.05
2018-09-30T00:40:50.060Z,102266.16
2018-09-30T00:41:50.343Z,102265.23
2018-09-30T00:41:58.402Z,102250.40
2018-09-30T00:42:59.801Z,102250.40
2018-09-30T00:44:00.313Z,102250.66
2018-09-30T00:45:00.884Z,102250.32
2018-09-30T00:46:01.199Z,102250.34
2018-09-30T00:47:01.894Z,102249.82
2018-09-30T00:48:02.443Z,102249.67
2018-09-30T00:49:02.781Z,102249.06
2018-09-30T00:50:03.097Z,102248.91
2018-09-30T00:51:03.397Z,102247.73
2018-09-30T00:52:03.681Z,102247.38
2018-09-30T00:53:04.049Z,102246.71
2018-09-30T00:54:08.484Z,102245.97
2018-09-30T00:55:04.793Z,102245.47
2018-09-30T00:56:04.829Z,102244.79
2018-09-30T00:57:06.358Z,102243.89
2018-09-30T00:58:05.673Z,102243.73
2018-09-30T00:59:07.434Z,102243.37
2018-09-30T01:00:07.795Z,102242.05
2018-09-30T01:01:08.099Z,102240.69
2018-09-30T01:02:08.382Z,102239.78
2018-09-30T01:03:08.685Z,102238.59
2018-09-30T01:04:09.077Z,102237.03
2018-09-30T01:05:09.381Z,102235.95
2018-09-30T01:06:09.739Z,102234.44
2018-09-30T01:07:10.074Z,102233.59
2018-09-30T01:08:10.365Z,102232.92
2018-09-30T01:09:10.722Z,102231.75
2018-09-30T01:10:11.041Z,102230.67
2018-09-30T01:11:11.356Z,102229.22
2018-09-30T01:12:11.692Z,102228.14
2018-09-30T01:13:12.080Z,102226.63
2018-09-30T01:14:12.420Z,102226.13
2018-09-30T01:15:12.819Z,102225.38
2018-09-30T01:16:13.186Z,102224.20
2018-09-30T01:17:13.486Z,102222.95
2018-09-30T01:18:13.777Z,102222.38
2018-09-30T01:19:14.098Z,102221.78
2018-09-30T01:20:14.545Z,102221.22
2018-09-30T01:21:14.923Z,102220.28
2018-09-30T01:22:15.261Z,102219.52
2018-09-30T01:23:15.581Z,102219.52
2018-09-30T01:24:15.883Z,102218.94
2018-09-30T01:25:16.432Z,102217.52
2018-09-30T01:26:16.811Z,102216.95
2018-09-30T01:27:17.116Z,102216.61
2018-09-30T01:28:17.039Z,102216.36
2018-09-30T01:29:17.473Z,102216.10
2018-09-30T01:30:18.137Z,102215.50
2018-09-30T01:30:26.257Z,102207.22
2018-09-30T01:31:27.579Z,102206.65
2018-09-30T01:32:27.881Z,102206.48
2018-09-30T01:33:28.245Z,102205.70
2018-09-30T01:34:28.579Z,102205.55
2018-09-30T01:35:28.942Z,102205.29
2018-09-30T01:36:29.290Z,102204.80
2018-09-30T01:37:29.630Z,102204.45
2018-09-30T01:38:30.081Z,102204.13
2018-09-30T01:39:29.432Z,102203.22
2018-09-30T01:40:30.767Z,102202.55
2018-09-30T01:41:31.111Z,102202.02
2018-09-30T01:42:31.438Z,102200.95
2018-09-30T01:43:31.843Z,102200.84
2018-09-30T01:44:32.184Z,102200.95
2018-09-30T01:45:31.935Z,102201.28
2018-09-30T01:46:33.441Z,102201.52
2018-09-30T01:47:33.764Z,102201.77
2018-09-30T01:48:34.292Z,102201.11
2018-09-30T01:49:34.794Z,102200.77
2018-09-30T01:50:35.162Z,102200.84
2018-09-30T01:51:35.595Z,102200.78
2018-09-30T01:52:36.121Z,102201.02
2018-09-30T01:53:35.671Z,102200.68
2018-09-30T01:54:35.536Z,102201.03
2018-09-30T01:55:37.072Z,102201.36
2018-09-30T01:56:37.657Z,102201.27
2018-09-30T01:57:37.318Z,102201.27
2018-09-30T01:58:37.292Z,102201.11
2018-09-30T01:59:38.753Z,102200.84
2018-09-30T02:00:39.739Z,102200.28
2018-09-30T02:01:40.202Z,102200.62
2018-09-30T02:02:40.965Z,102200.17
2018-09-30T02:03:40.160Z,102200.02
2018-09-30T02:04:41.422Z,102199.70
2018-09-30T02:05:42.288Z,102199.25
2018-09-30T02:06:42.559Z,102199.10
2018-09-30T02:07:43.080Z,102198.36
2018-09-30T02:08:42.955Z,102198.17
2018-09-30T02:09:43.017Z,102197.91
2018-09-30T02:10:44.271Z,102198.35
2018-09-30T02:11:44.073Z,102197.66
2018-09-30T02:12:44.664Z,102197.83
2018-09-30T02:13:45.083Z,102197.17
2018-09-30T02:14:46.389Z,102197.16
2018-09-30T02:15:46.887Z,102197.42
2018-09-30T02:16:46.219Z,102197.94
2018-09-30T02:17:47.778Z,102198.25
2018-09-30T02:18:48.108Z,102198.34
2018-09-30T02:19:48.595Z,102198.52
2018-09-30T02:20:48.868Z,102198.91
2018-09-30T02:21:49.177Z,102199.26
2018-09-30T02:22:49.518Z,102199.67
2018-09-30T02:23:50.325Z,102200.19
2018-09-30T02:24:50.598Z,102199.63
2018-09-30T02:24:59.002Z,102201.31
2018-09-30T02:26:00.305Z,102200.72
2018-09-30T02:27:01.274Z,102200.96
2018-09-30T02:28:01.442Z,102201.31
2018-09-30T02:29:01.843Z,102200.73
2018-09-30T02:30:02.136Z,102200.48
2018-09-30T02:31:02.453Z,102199.70
2018-09-30T02:32:02.829Z,102199.05
2018-09-30T02:33:03.196Z,102198.63
2018-09-30T02:34:02.450Z,102198.03
2018-09-30T02:35:03.863Z,102197.79
2018-09-30T02:36:02.903Z,102197.88
2018-09-30T02:37:04.896Z,102197.47
2018-09-30T02:38:05.363Z,102197.80
2018-09-30T02:39:05.807Z,102197.86
2018-09-30T02:40:06.106Z,102197.88
2018-09-30T02:41:05.458Z,102197.47
2018-09-30T02:42:07.028Z,102196.96
2018-09-30T02:43:07.368Z,102196.78
2018-09-30T02:44:07.634Z,102196.44
2018-09-30T02:45:07.963Z,102196.03
2018-09-30T02:46:08.125Z,102195.70
2018-09-30T02:47:09.023Z,102194.84
2018-09-30T02:48:10.008Z,102194.29
2018-09-30T02:49:10.432Z,102194.20
2018-09-30T02:50:10.735Z,102193.94
2018-09-30T02:51:11.169Z,102192.84
2018-09-30T02:52:11.952Z,102191.94
2018-09-30T02:53:12.947Z,102191.11
2018-09-30T02:54:12.211Z,102190.01
2018-09-30T02:55:13.802Z,102189.00
2018-09-30T02:56:14.310Z,102187.91
2018-09-30T02:57:16.108Z,102187.07
2018-09-30T02:58:14.711Z,102186.31
2018-09-30T02:59:15.217Z,102185.32
2018-09-30T03:00:16.872Z,102184.41
2018-09-30T03:01:17.201Z,102183.40
2018-09-30T03:02:17.507Z,102182.22
2018-09-30T03:03:17.900Z,102180.97
2018-09-30T03:04:18.167Z,102179.89
2018-09-30T03:05:18.509Z,102178.87
2018-09-30T03:06:18.893Z,102177.79
2018-09-30T03:07:19.297Z,102177.20
2018-09-30T03:08:19.690Z,102176.20
2018-09-30T03:09:20.151Z,102175.44
2018-09-30T03:10:20.536Z,102174.67
2018-09-30T03:11:20.868Z,102173.67
2018-09-30T03:12:21.230Z,102172.76
2018-09-30T03:13:21.566Z,102171.66
2018-09-30T03:14:22.334Z,102170.91
2018-09-30T03:15:21.573Z,102169.30
2018-09-30T03:16:23.059Z,102168.39
2018-09-30T03:16:33.085Z,102148.21
2018-09-30T03:17:34.495Z,102148.37
2018-09-30T03:18:34.838Z,102148.55
2018-09-30T03:19:35.299Z,102148.02
2018-09-30T03:20:35.656Z,102148.20
2018-09-30T03:21:36.279Z,102148.09
2018-09-30T03:22:36.723Z,102147.45
2018-09-30T03:23:37.044Z,102147.34
2018-09-30T03:24:37.369Z,102147.00
2018-09-30T03:25:37.642Z,102146.09
2018-09-30T03:26:38.040Z,102145.34
2018-09-30T03:27:38.685Z,102144.69
2018-09-30T03:28:39.035Z,102143.57
2018-09-30T03:29:39.445Z,102142.92
2018-09-30T03:30:39.883Z,102142.41
2018-09-30T03:31:40.328Z,102141.74
2018-09-30T03:32:40.804Z,102141.56
2018-09-30T03:33:41.270Z,102140.90
2018-09-30T03:34:41.592Z,102140.23
2018-09-30T03:35:41.888Z,102139.33
2018-09-30T03:36:42.225Z,102138.14
2018-09-30T03:37:42.670Z,102136.89
2018-09-30T03:38:42.090Z,102136.14
2018-09-30T03:39:43.461Z,102134.73
2018-09-30T03:40:42.784Z,102134.04
2018-09-30T03:41:44.114Z,102133.11
2018-09-30T03:42:44.593Z,102131.53
2018-09-30T03:43:44.926Z,102130.77
2018-09-30T03:44:45.286Z,102129.61
2018-09-30T03:45:45.600Z,102128.52
2018-09-30T03:46:45.972Z,102127.17
2018-09-30T03:47:46.321Z,102125.84
2018-09-30T03:48:46.897Z,102124.94
2018-09-30T03:49:47.209Z,102124.19
2018-09-30T03:50:47.596Z,102122.74
2018-09-30T03:51:47.903Z,102121.93
2018-09-30T03:52:48.254Z,102120.69
2018-09-30T03:53:48.553Z,102119.59
2018-09-30T03:54:48.834Z,102118.50
2018-09-30T03:55:49.095Z,102118.33
2018-09-30T03:56:49.445Z,102117.25
2018-09-30T03:57:48.736Z,102116.91
2018-09-30T03:58:50.189Z,102116.42
2018-09-30T03:59:50.460Z,102116.06
2018-09-30T04:00:50.864Z,102115.30
2018-09-30T04:00:59.394Z,102106.13
2018-09-30T04:02:00.631Z,102106.13
2018-09-30T04:03:01.047Z,102106.03
2018-09-30T04:04:01.413Z,102106.28
2018-09-30T04:05:01.731Z,102105.86
2018-09-30T04:06:02.028Z,102106.03
2018-09-30T04:07:02.353Z,102106.28
2018-09-30T04:08:02.673Z,102106.45
2018-09-30T04:09:02.934Z,102106.72
2018-09-30T04:10:03.271Z,102106.38
2018-09-30T04:11:02.486Z,102106.47
2018-09-30T04:12:03.811Z,102105.81
2018-09-30T04:13:04.544Z,102106.03
2018-09-30T04:14:05.021Z,102106.30
2018-09-30T04:15:05.381Z,102106.62
2018-09-30T04:16:05.749Z,102106.80
2018-09-30T04:17:06.333Z,102106.37
2018-09-30T04:18:06.062Z,102106.87
2018-09-30T04:19:07.418Z,102107.31
2018-09-30T04:20:07.828Z,102107.45
2018-09-30T04:21:08.355Z,102107.70
2018-09-30T04:22:08.696Z,102107.53
2018-09-30T04:23:09.028Z,102107.97
2018-09-30T04:24:09.422Z,102108.22
2018-09-30T04:25:10.132Z,102108.30
2018-09-30T04:26:10.388Z,102108.30
2018-09-30T04:27:10.695Z,102107.86
2018-09-30T04:28:11.345Z,102107.70
2018-09-30T04:29:11.705Z,102107.87
2018-09-30T04:30:12.002Z,102107.69
2018-09-30T04:31:12.330Z,102108.13
2018-09-30T04:32:12.727Z,102108.70
2018-09-30T04:33:13.279Z,102108.69
2018-09-30T04:34:12.728Z,102109.30
2018-09-30T04:35:14.057Z,102109.38
2018-09-30T04:36:14.392Z,102109.45
2018-09-30T04:37:14.717Z,102109.70
2018-09-30T04:38:15.083Z,102110.05
2018-09-30T04:39:15.550Z,102110.28
2018-09-30T04:40:15.991Z,102110.69
2018-09-30T04:41:16.294Z,102110.95
2018-09-30T04:42:16.788Z,102111.77
2018-09-30T04:43:17.144Z,102112.03
2018-09-30T04:44:17.690Z,102112.86
2018-09-30T04:45:18.003Z,102113.19
2018-09-30T04:46:18.337Z,102113.69
2018-09-30T04:46:26.650Z,102124.88
2018-09-30T04:47:28.021Z,102124.66
2018-09-30T04:48:28.392Z,102124.83
2018-09-30T04:49:28.759Z,102124.21
2018-09-30T04:50:29.104Z,102124.39
2018-09-30T04:51:29.452Z,102124.37
2018-09-30T04:52:29.721Z,102124.56
2018-09-30T04:53:30.598Z,102123.78
2018-09-30T04:54:31.016Z,102123.39
2018-09-30T04:55:31.283Z,102123.03
2018-09-30T04:56:31.594Z,102122.12
2018-09-30T04:57:31.903Z,102121.87
2018-09-30T04:58:32.218Z,102121.45
2018-09-30T04:59:32.613Z,102121.17
2018-09-30T05:00:32.919Z,102121.26
2018-09-30T05:01:33.229Z,102121.02
2018-09-30T05:02:33.506Z,102120.67
2018-09-30T05:03:33.896Z,102120.50
2018-09-30T05:04:34.259Z,102119.82
2018-09-30T05:05:34.597Z,102119.55
2018-09-30T05:06:33.777Z,102119.08
2018-09-30T05:07:35.065Z,102118.13
2018-09-30T05:08:35.549Z,102117.21
2018-09-30T05:09:36.211Z,102117.04
2018-09-30T05:10:36.564Z,102116.47
2018-09-30T05:11:36.834Z,102115.78
2018-09-30T05:12:36.148Z,102114.61
2018-09-30T05:13:37.504Z,102113.59
2018-09-30T05:14:37.865Z,102112.68
2018-09-30T05:15:38.151Z,102111.84
2018-09-30T05:16:38.608Z,102111.76
2018-09-30T05:17:39.479Z,102111.06
2018-09-30T05:18:39.904Z,102110.81
2018-09-30T05:19:40.207Z,102109.48
2018-09-30T05:20:40.523Z,102108.89
2018-09-30T05:21:39.893Z,102107.98
2018-09-30T05:22:41.211Z,102107.79
2018-09-30T05:23:41.561Z,102107.38
2018-09-30T05:24:41.861Z,102106.70
2018-09-30T05:25:42.257Z,102105.95
2018-09-30T05:26:41.462Z,102105.86
2018-09-30T05:27:42.952Z,102105.53
2018-09-30T05:28:41.793Z,102105.61
2018-09-30T05:29:43.122Z,102105.77
2018-09-30T05:30:43.405Z,102105.20
2018-09-30T05:31:43.794Z,102105.18
2018-09-30T05:32:44.079Z,102105.09
2018-09-30T05:33:44.773Z,102104.84
2018-09-30T05:34:44.089Z,102104.18
2018-09-30T05:34:52.403Z,102105.58
2018-09-30T05:35:53.900Z,102104.48
2018-09-30T05:36:54.167Z,102104.08
2018-09-30T05:37:54.420Z,102103.81
2018-09-30T05:38:54.741Z,102102.97
2018-09-30T05:39:55.023Z,102102.73
2018-09-30T05:40:55.809Z,102102.39
2018-09-30T05:41:56.086Z,102102.31
2018-09-30T05:42:56.316Z,102102.17
2018-09-30T05:43:56.687Z,102102.06
2018-09-30T05:44:57.016Z,102101.56
2018-09-30T05:45:57.302Z,102101.08
2018-09-30T05:46:57.572Z,102100.01
2018-09-30T05:47:57.911Z,102100.01
2018-09-30T05:48:57.335Z,102099.24
2018-09-30T05:49:58.792Z,102098.48
2018-09-30T05:50:59.194Z,102097.89
2018-09-30T05:51:59.487Z,102096.72
2018-09-30T05:52:59.924Z,102095.66
2018-09-30T05:54:00.256Z,102094.48
2018-09-30T05:55:00.566Z,102093.66
2018-09-30T05:56:01.311Z,102092.73
2018-09-30T05:57:00.785Z,102092.06
2018-09-30T05:58:02.258Z,102091.48
2018-09-30T05:59:01.637Z,102090.64
2018-09-30T06:00:03.382Z,102089.88
2018-09-30T06:01:03.700Z,102089.54
2018-09-30T06:02:04.016Z,102088.81
2018-09-30T06:03:04.341Z,102088.39
2018-09-30T06:04:04.772Z,102087.79
2018-09-30T06:05:04.046Z,102087.36
2018-09-30T06:06:05.421Z,102086.53
2018-09-30T06:07:05.728Z,102086.48
2018-09-30T06:08:06.296Z,102086.38
2018-09-30T06:09:06.730Z,102086.31
2018-09-30T06:10:05.998Z,102085.88
2018-09-30T06:11:07.358Z,102086.23
2018-09-30T06:12:07.658Z,102085.83
2018-09-30T06:13:07.960Z,102085.55
2018-09-30T06:14:08.608Z,102085.47
2018-09-30T06:15:07.684Z,102085.31
2018-09-30T06:16:09.018Z,102084.80
2018-09-30T06:17:09.302Z,102084.48
2018-09-30T06:18:09.615Z,102084.07
2018-09-30T06:19:10.131Z,102082.98
2018-09-30T06:20:10.513Z,102082.39
2018-09-30T06:21:10.959Z,102081.84
2018-09-30T06:22:11.324Z,102080.08
2018-09-30T06:23:11.631Z,102079.57
2018-09-30T06:23:20.083Z,102070.45
2018-09-30T06:24:21.486Z,102070.36
2018-09-30T06:25:21.853Z,102070.19
2018-09-30T06:26:22.110Z,102070.16
2018-09-30T06:27:22.416Z,102069.59
2018-09-30T06:28:22.764Z,102068.75
2018-09-30T06:29:23.231Z,102068.01
2018-09-30T06:30:23.550Z,102067.66
2018-09-30T06:31:23.850Z,102066.94
2018-09-30T06:32:24.132Z,102066.11
2018-09-30T06:33:24.407Z,102065.51
2018-09-30T06:34:24.799Z,102064.61
2018-09-30T06:35:25.131Z,102064.05
2018-09-30T06:36:25.428Z,102063.45
2018-09-30T06:37:25.936Z,102062.46
2018-09-30T06:38:26.452Z,102061.69
2018-09-30T06:39:26.956Z,102060.95
2018-09-30T06:40:27.304Z,102060.28
2018-09-30T06:41:26.602Z,102059.80
2018-09-30T06:42:26.842Z,102059.38
2018-09-30T06:43:28.142Z,102058.80
2018-09-30T06:44:28.502Z,102058.40
2018-09-30T06:45:28.970Z,102057.64
2018-09-30T06:46:28.285Z,102056.82
2018-09-30T06:47:29.545Z,102055.66
2018-09-30T06:48:29.834Z,102055.34
2018-09-30T06:49:30.192Z,102054.41
2018-09-30T06:50:30.544Z,102053.94
2018-09-30T06:51:31.422Z,102053.41
2018-09-30T06:52:31.890Z,102053.45
2018-09-30T06:53:32.345Z,102052.59
2018-09-30T06:54:32.721Z,102052.70
2018-09-30T06:55:33.344Z,102052.45
2018-09-30T06:56:33.781Z,102052.80
2018-09-30T06:57:34.112Z,102052.97
2018-09-30T06:58:34.532Z,102052.89
2018-09-30T06:59:34.994Z,102053.33
2018-09-30T07:00:35.296Z,102053.41
2018-09-30T07:01:35.781Z,102053.81
2018-09-30T07:02:36.204Z,102054.16
2018-09-30T07:03:36.678Z,102054.50
2018-09-30T07:04:37.076Z,102055.18
2018-09-30T07:05:37.411Z,102055.43
2018-09-30T07:06:37.864Z,102055.68
2018-09-30T07:07:38.195Z,102056.17
2018-09-30T07:08:38.661Z,102056.59
2018-09-30T07:09:00.857Z,102065.13
2018-09-30T07:10:01.344Z,102064.70
2018-09-30T07:11:01.692Z,102064.37
2018-09-30T07:12:02.110Z,102064.78
2018-09-30T07:13:02.455Z,102064.89
2018-09-30T07:14:02.823Z,102064.70
2018-09-30T07:15:03.287Z,102064.11
2018-09-30T07:16:03.666Z,102064.19
2018-09-30T07:17:04.074Z,102063.61
2018-09-30T07:18:04.401Z,102063.20
2018-09-30T07:19:04.830Z,102063.11
2018-09-30T07:20:05.192Z,102063.11
2018-09-30T07:21:05.558Z,102062.59
2018-09-30T07:22:05.856Z,102062.70
2018-09-30T07:23:06.224Z,102062.00
2018-09-30T07:24:06.697Z,102061.52
2018-09-30T07:25:07.235Z,102061.23
2018-09-30T07:26:07.561Z,102061.19
2018-09-30T07:27:08.019Z,102060.48
2018-09-30T07:28:08.472Z,102060.39
2018-09-30T07:29:08.893Z,102060.14
2018-09-30T07:30:09.243Z,102060.48
2018-09-30T07:31:09.646Z,102060.13
2018-09-30T07:32:09.939Z,102059.72
2018-09-30T07:33:10.306Z,102060.05
2018-09-30T07:34:10.618Z,102059.72
2018-09-30T07:35:11.276Z,102060.05
2018-09-30T07:36:10.627Z,102060.53
2018-09-30T07:37:12.031Z,102060.45
2018-09-30T07:38:12.593Z,102060.70
2018-09-30T07:39:12.881Z,102060.84
2018-09-30T07:40:13.284Z,102060.61
2018-09-30T07:41:13.772Z,102060.60
2018-09-30T07:42:14.603Z,102060.09
2018-09-30T07:43:15.126Z,102059.25
2018-09-30T07:44:15.436Z,102058.65
2018-09-30T07:45:15.858Z,102057.64
2018-09-30T07:46:16.196Z,102056.98
2018-09-30T07:47:16.525Z,102056.31
2018-09-30T07:48:16.843Z,102055.46
2018-09-30T07:49:17.152Z,102053.78
2018-09-30T07:50:17.485Z,102052.37
2018-09-30T07:51:17.910Z,102052.19
2018-09-30T07:52:18.291Z,102051.34
2018-09-30T07:53:18.851Z,102050.68
2018-09-30T07:53:27.188Z,102039.29
2018-09-30T07:54:28.459Z,102039.20
2018-09-30T07:55:28.809Z,102039.63
2018-09-30T07:56:29.171Z,102039.70
2018-09-30T07:57:29.627Z,102039.72
2018-09-30T07:58:30.131Z,102039.13
2018-09-30T07:59:30.655Z,102038.77
2018-09-30T08:00:31.174Z,102037.77
2018-09-30T08:01:31.739Z,102037.42
2018-09-30T08:02:32.137Z,102036.47
2018-09-30T08:03:32.637Z,102036.01
2018-09-30T08:04:33.145Z,102035.44
2018-09-30T08:05:33.674Z,102035.05
2018-09-30T08:06:34.569Z,102033.73
2018-09-30T08:07:34.017Z,102033.00
2018-09-30T08:08:34.439Z,102032.67
2018-09-30T08:09:35.753Z,102031.69
2018-09-30T08:10:36.152Z,102031.19
2018-09-30T08:11:36.573Z,102030.19
2018-09-30T08:12:37.073Z,102029.27
2018-09-30T08:13:37.526Z,102028.27
2018-09-30T08:14:38.158Z,102027.42
2018-09-30T08:15:38.551Z,102025.59
2018-09-30T08:16:39.000Z,102024.66
2018-09-30T08:17:38.279Z,102023.51
2018-09-30T08:18:38.887Z,102021.77
2018-09-30T08:19:39.558Z,102020.22
2018-09-30T08:20:40.042Z,102019.09
2018-09-30T08:21:41.372Z,102017.25
2018-09-30T08:22:41.769Z,102015.73
2018-09-30T08:23:42.170Z,102014.58
2018-09-30T08:24:42.574Z,102013.65
2018-09-30T08:25:43.173Z,102012.40
2018-09-30T08:26:43.901Z,102011.14
2018-09-30T08:27:44.228Z,102009.82
2018-09-30T08:28:44.575Z,102008.64
2018-09-30T08:29:45.281Z,102007.11
2018-09-30T08:30:45.656Z,102005.95
2018-09-30T08:31:45.046Z,102004.53
2018-09-30T08:32:46.361Z,102003.47
2018-09-30T08:33:47.252Z,102001.45
2018-09-30T08:34:47.605Z,101999.77
2018-09-30T08:35:48.002Z,101997.88
2018-09-30T08:36:48.214Z,101996.56
2018-09-30T08:37:48.561Z,101995.74
2018-09-30T08:38:48.911Z,101994.37
2018-09-30T08:39:49.338Z,101993.06
2018-09-30T08:40:48.644Z,101991.55
2018-09-30T08:41:49.999Z,101990.77
2018-09-30T08:42:49.432Z,101989.27
2018-09-30T08:43:51.037Z,101988.25
2018-09-30T08:44:00.056Z,101971.06
2018-09-30T08:45:00.330Z,101970.89
2018-09-30T08:46:00.644Z,101970.20
2018-09-30T08:47:00.986Z,101970.77
2018-09-30T08:48:01.894Z,101970.66
2018-09-30T08:49:03.181Z,101970.28
2018-09-30T08:50:02.528Z,101969.59
2018-09-30T08:51:02.875Z,101969.23
2018-09-30T08:52:03.232Z,101969.48
2018-09-30T08:53:03.614Z,101969.29
2018-09-30T08:54:03.947Z,101969.23
2018-09-30T08:55:04.286Z,101968.68
2018-09-30T08:56:04.727Z,101968.10
2018-09-30T08:57:04.313Z,101967.77
2018-09-30T08:58:05.700Z,101967.02
2018-09-30T08:59:06.064Z,101966.43
2018-09-30T09:00:06.481Z,101966.14
2018-09-30T09:01:06.851Z,101965.72
2018-09-30T09:02:07.191Z,101965.81
2018-09-30T09:03:07.647Z,101965.22
2018-09-30T09:04:07.115Z,101965.05
2018-09-30T09:05:08.679Z,101964.96
2018-09-30T09:06:08.065Z,101964.33
2018-09-30T09:07:09.582Z,101964.12
2018-09-30T09:08:09.989Z,101963.79
2018-09-30T09:09:10.421Z,101963.02
2018-09-30T09:10:11.018Z,101962.68
2018-09-30T09:11:11.416Z,101962.56
2018-09-30T09:12:11.850Z,101962.09
2018-09-30T09:13:12.406Z,101961.63
2018-09-30T09:14:13.144Z,101961.12
2018-09-30T09:15:13.622Z,101959.63
2018-09-30T09:16:13.959Z,101959.58
2018-09-30T09:17:14.506Z,101959.33
2018-09-30T09:18:14.878Z,101958.61
2018-09-30T09:19:15.222Z,101957.58
2018-09-30T09:20:15.677Z,101956.61
2018-09-30T09:21:16.267Z,101955.47
2018-09-30T09:22:16.628Z,101954.31
2018-09-30T09:23:17.131Z,101952.91
2018-09-30T09:24:18.034Z,101952.27
2018-09-30T09:25:18.541Z,101951.59
2018-09-30T09:26:18.995Z,101950.79
2018-09-30T09:27:19.328Z,101949.86
2018-09-30T09:28:19.756Z,101948.75
2018-09-30T09:29:20.086Z,101947.09
2018-09-30T09:29:28.157Z,101927.80
2018-09-30T09:30:29.489Z,101927.41
2018-09-30T09:31:29.955Z,101927.63
2018-09-30T09:32:29.199Z,101927.17
2018-09-30T09:33:30.428Z,101926.70
2018-09-30T09:34:30.708Z,101926.48
2018-09-30T09:35:31.030Z,101925.99
2018-09-30T09:36:31.300Z,101925.56
2018-09-30T09:37:31.606Z,101924.93
2018-09-30T09:38:32.046Z,101924.97
2018-09-30T09:39:31.463Z,101924.29
2018-09-30T09:40:32.808Z,101923.35
2018-09-30T09:41:33.130Z,101922.79
2018-09-30T09:42:34.596Z,101921.51
2018-09-30T09:43:33.946Z,101920.66
2018-09-30T09:44:34.591Z,101919.22
2018-09-30T09:45:34.950Z,101917.52
2018-09-30T09:46:35.317Z,101915.98
2018-09-30T09:47:35.611Z,101914.49
2018-09-30T09:48:35.917Z,101912.83
2018-09-30T09:49:36.227Z,101911.39
2018-09-30T09:50:36.637Z,101910.02
2018-09-30T09:51:36.940Z,101908.62
2018-09-30T09:52:37.463Z,101906.84
2018-09-30T09:53:36.754Z,101904.88
2018-09-30T09:54:38.093Z,101903.52
2018-09-30T09:55:38.456Z,101901.82
2018-09-30T09:56:38.793Z,101900.69
2018-09-30T09:57:39.165Z,101899.66
2018-09-30T09:58:39.570Z,101899.20
2018-09-30T09:59:40.110Z,101898.14
2018-09-30T10:00:40.508Z,101897.34
2018-09-30T10:01:40.966Z,101896.28
2018-09-30T10:02:41.266Z,101895.69
2018-09-30T10:03:41.684Z,101894.71
2018-09-30T10:04:42.084Z,101893.89
2018-09-30T10:05:42.171Z,101893.27
2018-09-30T10:06:42.520Z,101892.45
2018-09-30T10:07:42.815Z,101891.69
2018-09-30T10:08:43.149Z,101890.88
2018-09-30T10:09:43.495Z,101889.98
2018-09-30T10:10:43.981Z,101889.27
2018-09-30T10:11:44.365Z,101889.06
2018-09-30T10:12:44.742Z,101888.59
2018-09-30T10:13:45.158Z,101888.22
2018-09-30T10:13:53.606Z,101887.54
2018-09-30T10:14:54.925Z,101887.03
2018-09-30T10:15:55.831Z,101885.97
2018-09-30T10:16:56.156Z,101885.66
2018-09-30T10:17:56.574Z,101884.91
2018-09-30T10:18:56.919Z,101884.48
2018-09-30T10:19:57.407Z,101883.47
2018-09-30T10:20:57.902Z,101882.53
2018-09-30T10:21:58.266Z,101882.19
2018-09-30T10:22:58.657Z,101880.87
2018-09-30T10:23:58.968Z,101879.64
2018-09-30T10:24:59.377Z,101878.41
2018-09-30T10:25:59.763Z,101877.60
2018-09-30T10:27:00.424Z,101876.03
2018-09-30T10:27:59.853Z,101874.97
2018-09-30T10:29:01.781Z,101873.73
2018-09-30T10:30:02.183Z,101872.41
2018-09-30T10:31:02.531Z,101870.66
2018-09-30T10:32:03.320Z,101869.47
2018-09-30T10:33:03.918Z,101867.98
2018-09-30T10:34:04.677Z,101866.66
2018-09-30T10:35:05.033Z,101865.16
2018-09-30T10:36:05.596Z,101863.83
2018-09-30T10:37:05.973Z,101862.13
2018-09-30T10:38:06.298Z,101860.64
2018-09-30T10:39:06.737Z,101858.97
2018-09-30T10:40:06.016Z,101857.47
2018-09-30T10:41:07.368Z,101855.63
2018-09-30T10:42:07.814Z,101854.42
2018-09-30T10:43:08.357Z,101853.02
2018-09-30T10:44:08.837Z,101851.48
2018-09-30T10:45:09.316Z,101849.89
2018-09-30T10:46:09.949Z,101847.46
2018-09-30T10:47:10.496Z,101845.58
2018-09-30T10:48:10.815Z,101843.22
2018-09-30T10:49:11.375Z,101841.42
2018-09-30T10:50:11.746Z,101839.80
2018-09-30T10:51:12.110Z,101838.46
2018-09-30T10:52:12.482Z,101836.97
2018-09-30T10:53:12.798Z,101834.92
2018-09-30T10:54:13.141Z,101833.28
2018-09-30T10:55:13.675Z,101831.45
2018-09-30T10:56:13.182Z,101829.81
2018-09-30T10:57:13.462Z,101827.72
2018-09-30T10:58:14.785Z,101825.75
2018-09-30T10:59:15.285Z,101823.99
2018-09-30T11:00:15.624Z,101822.24
2018-09-30T11:01:16.046Z,101820.70
2018-09-30T11:02:16.392Z,101818.72
2018-09-30T11:02:25.492Z,101788.98
2018-09-30T11:03:26.853Z,101788.94
2018-09-30T11:04:26.146Z,101789.54
2018-09-30T11:05:27.618Z,101789.59
2018-09-30T11:06:28.554Z,101789.13
2018-09-30T11:07:29.029Z,101789.13
2018-09-30T11:08:29.613Z,101788.67
2018-09-30T11:09:29.940Z,101788.92
2018-09-30T11:10:29.388Z,101788.54
2018-09-30T11:11:30.741Z,101788.12
2018-09-30T11:12:31.227Z,101787.34
2018-09-30T11:13:31.609Z,101786.80
2018-09-30T11:14:32.008Z,101785.77
2018-09-30T11:15:32.981Z,101784.27
2018-09-30T11:16:31.339Z,101783.20
2018-09-30T11:17:32.689Z,101782.25